Share

Grand Forks Air Force Base, ND

8:41 PM CDT on April 24, 2014 (GMT -0500)
Grand Forks Air Force Base (KRDR) Elev 912 ft | 47.96 °N, 97.40 °W | Change Station

Current weather conditions updated 3 minutes ago

Overcast
Overcast
43 °F
Feels Like 43 °F
N
2
Wind Variable Wind from NE
Sunrise 6:23 AM
Sunset 8:32 PM
Moon Waning Crescent

Tomorrow is forecast to be Warmer than today.

Pressure 29.73 in
Visibility 5.0 miles
Clouds Overcast 600 ft
Dew Point 41 °F
Humidity 93%
Rainfall 0.06 in
Snow Depth Not available.
UV 0 out of 16
Pollen 6.80 out of 12
Air Quality Not available.
Flu Activity Sporadic
SPECI KRDR 250138Z AUTO 05002KT 5SM R35/4500FT BR OVC006 06/05 A2973 RMK AO2

More Conditions Fewer Conditions

Pressure 29.73 in
Visibility 5.0 miles
Clouds Overcast 600 ft
Dew Point 41 °F
Humidity 93%
Rainfall 0.06 in
Snow Depth Not available.
UV 0 out of 16
Pollen 6.80 out of 12
Air Quality Not available.
Flu Activity Sporadic
SPECI KRDR 250138Z AUTO 05002KT 5SM R35/4500FT BR OVC006 06/05 A2973 RMK AO2

More Conditions Fewer Conditions

10-Day Weather Forecast

Almanac

Astronomy

Apr. 24, 2014 Rise Set
Actual Time 6:23 AM CDT 8:32 PM CDT
Civil Twilight 5:49 AM CDT 9:06 PM CDT
Nautical Twilight 5:07 AM CDT 9:48 PM CDT
Astronomical Twilight 4:21 AM CDT 10:36 PM CDT
Moon 3:58 AM CDT (4/24) 3:28 PM CDT (4/24)
Length of Visible Light 15h 16m
Length of Day
14h 09m
Tomorrow will be 3m 13s longer.
Waning Crescent, 21% of the Moon is Illuminated
Today
Waning Crescent
Apr 29
New
May 6
First Quarter
May 14
Full
May 21
Last Quarter

Today's Extremes

State Highs State Lows

Community

  • Jone Runs Falls
    Jone Runs Falls
  • Easter in Shenandoah National Park
    Easter in Shenandoah National Park
  • Sunset at Apalachicola Bay, Florida
    Sunset at Apalachicola Bay, Florida
  • Clouds mov'n in
    Clouds mov'n in
  • Stacked
    Stacked

WunderPhotos

Upload Photos

1,704,789 photos uploaded!

Nearby

Snow Depth

Station Depth Elevation
No new snow has been reported.

Coastal Water Temperatures

Place Temperature
No Stations Reporting

Earthquake Activity

City Distance Mag. Time & Date
No recent earthquake activity has been reported nearby.
Minimum magnitude displayed is 2.5.

Nearby Weather Stations

Station Location Temp. Windchill Dew Point Humidity Wind Precip. Elev Updated Type
NDDOT Emerado US 2 MP 340.4, Emerado, ND 43 °F 41 °F 41 °F 93% ENE  at  4 mph 0.00 in / hr 922 ft 7:40 PM CDT MADIS
NDDOT Grand Forks I-29 MP 145, Grand Forks, ND 42 °F 38 °F 42 °F 99% East  at  6 mph 0.00 in / hr 916 ft 7:35 PM CDT MADIS
Grand Forks, ND 41.1 °F 41 °F 39 °F 94% WNW  at  1.6 mph 0.00 in / hr 830 ft 8:19 PM CDT Rapid Fire

Show More Stations Show Fewer Stations

What do you think?

We're not finished. Please let us know what you like, what you don't like, and what you are still missing.